Time;durP1;ratioP1;P1;durP2;ratioP2;P2;SDS_P1;SDS_P2;PMS_P1;PMS_P2;Temp;Humidity;BMP_temperature;BMP_pressure;BME280_temperature;BME280_humidity;BME280_pressure;Samples;Min_cycle;Max_cycle;Signal;HPM_P1;HPM_P2
2023/09/27 00:01:56;;;;;;;;;;;16.00;85.20;;;;;;5060763;28;19917;-85
2023/09/27 00:04:22;;;;;;;;;;;15.90;85.30;;;;;;5063276;28;19913;-86
2023/09/27 00:06:47;;;;;;;;;;;15.90;85.50;;;;;;5061187;28;19909;-85
2023/09/27 00:09:13;;;;;;;;;;;15.90;85.40;;;;;;5066386;28;19931;-85
2023/09/27 00:11:38;;;;;;;;;;;15.80;85.30;;;;;;5064868;28;19924;-85
2023/09/27 00:14:04;;;;;;;;;;;15.80;85.10;;;;;;5065850;28;19909;-84
2023/09/27 00:16:29;;;;;;;;;;;15.80;85.20;;;;;;5062625;28;20363;-84
2023/09/27 00:18:55;;;;;;;;;;;15.80;85.20;;;;;;5067994;28;20366;-84
2023/09/27 00:21:21;;;;;;;;;;;15.80;85.10;;;;;;5062218;28;19920;-84
2023/09/27 00:23:46;;;;;;;;;;;15.70;85.10;;;;;;5061784;28;19913;-83
2023/09/27 00:26:12;;;;;;;;;;;15.80;85.10;;;;;;5060655;28;19947;-83
2023/09/27 00:28:37;;;;;;;;;;;15.80;85.20;;;;;;5062036;28;19916;-84
2023/09/27 00:31:04;;;;;;;;;;;15.80;85.40;;;;;;5059015;28;19959;-83
2023/09/27 00:33:29;;;;;;;;;;;15.90;85.30;;;;;;5060266;28;19924;-83
2023/09/27 00:35:55;;;;;;;;;;;15.80;85.10;;;;;;5056568;28;19916;-83
2023/09/27 00:38:20;;;;;;;;;;;15.80;85.00;;;;;;5054555;28;19952;-83
2023/09/27 00:40:47;;;;;;;;;;;15.80;85.00;;;;;;5063079;28;19916;-83
2023/09/27 00:43:26;;;;;;;;;;;15.80;84.90;;;;;;5054814;28;19967;-84
2023/09/27 00:45:56;;;;;;;;;;;15.70;84.90;;;;;;5063054;28;19919;-83
2023/09/27 00:48:22;;;;;;;;;;;15.70;85.00;;;;;;5075759;28;19920;-83
2023/09/27 00:50:48;;;;;;;;;;;15.60;85.20;;;;;;5064259;28;19913;-83
2023/09/27 00:53:13;;;;;;;;;;;15.60;85.30;;;;;;5059961;28;19928;-83
2023/09/27 00:55:39;;;;;;;;;;;15.60;85.20;;;;;;5063198;28;19913;-84
2023/09/27 00:58:05;;;;;;;;;;;15.60;85.20;;;;;;5061102;28;19913;-83
2023/09/27 01:00:30;;;;;;;;;;;15.60;85.10;;;;;;5062061;28;19917;-83
2023/09/27 01:02:56;;;;;;;;;;;15.70;84.80;;;;;;5055197;28;19924;-83
2023/09/27 01:05:22;;;;;;;;;;;15.60;84.90;;;;;;5058282;28;20406;-83
2023/09/27 01:07:47;;;;;;;;;;;15.60;84.90;;;;;;5061388;28;19917;-83
2023/09/27 01:10:13;;;;;;;;;;;15.60;85.10;;;;;;5062509;28;19924;-83
2023/09/27 01:12:39;;;;;;;;;;;15.60;84.90;;;;;;5070990;28;19917;-83
2023/09/27 01:15:07;;;;;;;;;;;15.60;85.00;;;;;;5056947;28;19913;-84
2023/09/27 01:17:33;;;;;;;;;;;15.80;84.70;;;;;;5059148;28;20007;-83
2023/09/27 01:19:59;;;;;;;;;;;15.80;84.80;;;;;;5058944;28;19928;-84
2023/09/27 01:22:24;;;;;;;;;;;15.80;84.70;;;;;;5057819;28;19936;-83
2023/09/27 01:24:51;;;;;;;;;;;15.80;84.80;;;;;;5061419;28;20007;-84
2023/09/27 01:27:18;;;;;;;;;;;15.80;84.70;;;;;;5055509;28;19928;-84
2023/09/27 01:29:43;;;;;;;;;;;15.80;84.50;;;;;;5060723;28;19917;-84
2023/09/27 01:32:09;;;;;;;;;;;15.80;84.70;;;;;;5056868;28;20011;-84
2023/09/27 01:34:34;;;;;;;;;;;15.80;84.70;;;;;;5061639;28;19913;-84
2023/09/27 01:37:00;;;;;;;;;;;15.80;84.40;;;;;;5062235;28;19948;-83
2023/09/27 01:39:26;;;;;;;;;;;15.80;84.60;;;;;;5064713;28;19927;-83
2023/09/27 01:41:51;;;;;;;;;;;15.90;84.10;;;;;;5055592;28;19917;-83
2023/09/27 01:44:18;;;;;;;;;;;15.90;84.30;;;;;;5055699;28;19921;-83
2023/09/27 01:46:43;;;;;;;;;;;15.90;84.10;;;;;;5058885;28;20451;-84
2023/09/27 01:49:09;;;;;;;;;;;16.00;83.40;;;;;;5059698;28;19920;-83
2023/09/27 01:51:34;;;;;;;;;;;15.90;84.00;;;;;;5059773;28;20366;-83
2023/09/27 01:54:00;;;;;;;;;;;15.90;84.00;;;;;;5061565;28;19912;-82
2023/09/27 01:56:25;;;;;;;;;;;15.80;84.60;;;;;;5060131;28;20224;-84
2023/09/27 01:58:50;;;;;;;;;;;15.80;84.80;;;;;;5064013;28;20273;-84
2023/09/27 02:01:16;;;;;;;;;;;15.70;84.50;;;;;;5060752;28;19913;-83
2023/09/27 02:03:42;;;;;;;;;;;15.70;84.80;;;;;;5063530;28;19920;-83
2023/09/27 02:06:08;;;;;;;;;;;15.60;84.90;;;;;;5057626;28;19908;-83
2023/09/27 02:08:33;;;;;;;;;;;15.60;84.80;;;;;;5062093;28;19913;-83
2023/09/27 02:10:59;;;;;;;;;;;15.60;85.00;;;;;;5060049;28;19913;-83
2023/09/27 02:13:24;;;;;;;;;;;15.60;85.10;;;;;;5055949;28;19962;-84
2023/09/27 02:15:50;;;;;;;;;;;15.50;85.20;;;;;;5058128;28;19917;-83
2023/09/27 02:18:15;;;;;;;;;;;15.50;85.00;;;;;;5060784;28;19944;-83
2023/09/27 02:20:41;;;;;;;;;;;15.50;85.10;;;;;;5056196;28;19909;-83
2023/09/27 02:23:06;;;;;;;;;;;15.50;85.30;;;;;;5055719;28;19920;-83
2023/09/27 02:25:32;;;;;;;;;;;15.50;85.40;;;;;;5054401;28;19952;-82
2023/09/27 02:27:57;;;;;;;;;;;15.40;85.10;;;;;;5051746;28;19920;-83
2023/09/27 02:30:23;;;;;;;;;;;15.40;85.20;;;;;;5061131;28;19916;-83
2023/09/27 02:32:48;;;;;;;;;;;15.40;85.00;;;;;;5061326;28;19924;-83
2023/09/27 02:35:14;;;;;;;;;;;15.30;85.20;;;;;;5062406;28;19927;-83
2023/09/27 02:37:40;;;;;;;;;;;15.40;85.00;;;;;;5061180;28;19952;-83
2023/09/27 02:40:15;;;;;;;;;;;15.30;84.80;;;;;;5065041;28;19916;-83
2023/09/27 02:42:41;;;;;;;;;;;15.30;84.60;;;;;;5059848;28;19913;-83
2023/09/27 02:45:10;;;;;;;;;;;15.20;85.00;;;;;;5062160;28;19912;-84
2023/09/27 02:47:36;;;;;;;;;;;15.20;85.00;;;;;;5059089;28;19913;-83
2023/09/27 02:50:02;;;;;;;;;;;15.10;85.10;;;;;;5064129;28;19913;-83
2023/09/27 02:52:28;;;;;;;;;;;15.10;85.00;;;;;;5071498;28;19980;-84
2023/09/27 02:54:53;;;;;;;;;;;15.10;85.20;;;;;;5056214;28;19959;-84
2023/09/27 02:57:19;;;;;;;;;;;15.10;85.20;;;;;;5053221;28;19917;-84
2023/09/27 02:59:45;;;;;;;;;;;15.00;85.40;;;;;;5053030;28;19913;-84
2023/09/27 03:02:11;;;;;;;;;;;15.10;85.50;;;;;;5047305;28;19919;-84
2023/09/27 03:04:36;;;;;;;;;;;15.10;85.60;;;;;;5054583;28;19916;-83
2023/09/27 03:07:02;;;;;;;;;;;15.20;85.10;;;;;;5050407;28;19924;-83
2023/09/27 03:09:27;;;;;;;;;;;15.20;84.60;;;;;;5055440;28;19923;-83
2023/09/27 03:11:53;;;;;;;;;;;15.10;84.90;;;;;;5055443;28;19921;-82
2023/09/27 03:14:18;;;;;;;;;;;15.00;85.30;;;;;;5058808;28;20004;-83
2023/09/27 03:16:44;;;;;;;;;;;15.00;85.40;;;;;;5060626;28;19913;-83
2023/09/27 03:19:09;;;;;;;;;;;15.00;85.60;;;;;;5060560;28;19913;-83
2023/09/27 03:21:35;;;;;;;;;;;15.10;85.30;;;;;;5058785;28;20155;-84
2023/09/27 03:24:00;;;;;;;;;;;15.00;85.30;;;;;;5059789;28;20358;-84
2023/09/27 03:26:26;;;;;;;;;;;15.10;85.30;;;;;;5059964;28;19917;-83
2023/09/27 03:28:51;;;;;;;;;;;15.00;85.30;;;;;;5055545;28;20362;-83
2023/09/27 03:31:17;;;;;;;;;;;15.00;85.50;;;;;;5056551;28;19913;-83
2023/09/27 03:33:43;;;;;;;;;;;14.90;85.80;;;;;;5057094;28;19913;-83
2023/09/27 03:36:08;;;;;;;;;;;15.00;85.40;;;;;;5058705;28;20020;-83
2023/09/27 03:38:34;;;;;;;;;;;15.00;85.30;;;;;;5058884;28;20433;-83
2023/09/27 03:40:59;;;;;;;;;;;14.90;85.50;;;;;;5059146;28;19913;-84
2023/09/27 03:43:25;;;;;;;;;;;14.80;85.80;;;;;;5048140;28;20067;-84
2023/09/27 03:45:51;;;;;;;;;;;14.80;85.90;;;;;;5058206;28;20305;-83
2023/09/27 03:48:17;;;;;;;;;;;14.80;86.20;;;;;;5056204;28;19916;-83
2023/09/27 03:50:42;;;;;;;;;;;14.90;86.00;;;;;;5057631;28;19912;-83
2023/09/27 03:53:07;;;;;;;;;;;14.80;85.60;;;;;;5052492;28;20020;-82
2023/09/27 03:55:33;;;;;;;;;;;14.80;85.70;;;;;;5058006;28;19909;-82
2023/09/27 03:57:58;;;;;;;;;;;14.80;85.80;;;;;;5052944;28;19917;-82
2023/09/27 04:00:24;;;;;;;;;;;14.80;86.00;;;;;;5060122;28;20435;-83
2023/09/27 04:02:49;;;;;;;;;;;14.70;86.00;;;;;;5072390;28;19922;-82
2023/09/27 04:05:16;;;;;;;;;;;14.80;85.70;;;;;;5054731;28;20333;-82
2023/09/27 04:07:42;;;;;;;;;;;14.70;85.70;;;;;;5060047;28;19948;-83
2023/09/27 04:10:08;;;;;;;;;;;14.70;85.70;;;;;;5076971;28;19916;-83
2023/09/27 04:12:33;;;;;;;;;;;14.80;85.80;;;;;;5059701;28;20058;-83
2023/09/27 04:14:59;;;;;;;;;;;14.70;85.90;;;;;;5061757;28;19913;-83
2023/09/27 04:17:24;;;;;;;;;;;14.70;85.80;;;;;;5060656;28;19909;-83
2023/09/27 04:19:50;;;;;;;;;;;14.70;85.90;;;;;;5062980;28;19920;-83
2023/09/27 04:22:15;;;;;;;;;;;14.60;85.90;;;;;;5058321;28;19916;-83
2023/09/27 04:24:41;;;;;;;;;;;14.70;85.80;;;;;;5058046;28;20003;-83
2023/09/27 04:27:06;;;;;;;;;;;14.70;85.60;;;;;;5057207;28;19920;-83
2023/09/27 04:29:32;;;;;;;;;;;14.70;85.60;;;;;;5052270;28;20007;-83
2023/09/27 04:31:57;;;;;;;;;;;14.60;85.80;;;;;;5059248;28;19916;-83
2023/09/27 04:34:23;;;;;;;;;;;14.60;86.10;;;;;;5053880;28;19916;-83
2023/09/27 04:36:50;;;;;;;;;;;14.60;86.30;;;;;;5058600;28;20420;-83
2023/09/27 04:39:17;;;;;;;;;;;14.60;86.60;;;;;;5054817;28;19924;-83
2023/09/27 04:41:43;;;;;;;;;;;14.60;86.60;;;;;;5057389;28;19984;-83
2023/09/27 04:44:09;;;;;;;;;;;14.60;86.80;;;;;;5050279;28;19995;-83
2023/09/27 04:46:34;;;;;;;;;;;14.60;86.70;;;;;;5058123;28;19956;-83
2023/09/27 04:49:00;;;;;;;;;;;14.70;86.30;;;;;;5055271;28;20337;-83
2023/09/27 04:51:26;;;;;;;;;;;14.70;86.30;;;;;;5056629;28;19920;-83
2023/09/27 04:53:51;;;;;;;;;;;14.70;86.40;;;;;;5060459;28;19980;-83
2023/09/27 04:56:17;;;;;;;;;;;14.60;86.40;;;;;;5059368;28;19924;-84
2023/09/27 04:58:42;;;;;;;;;;;14.60;86.50;;;;;;5056464;28;19919;-83
2023/09/27 05:01:09;;;;;;;;;;;14.60;86.30;;;;;;5062497;28;19908;-83
2023/09/27 05:03:35;;;;;;;;;;;14.60;86.10;;;;;;5063104;28;19963;-83
2023/09/27 05:06:01;;;;;;;;;;;14.60;86.00;;;;;;5058165;28;19913;-82
2023/09/27 05:08:26;;;;;;;;;;;14.60;86.10;;;;;;5047862;28;19948;-87
2023/09/27 05:10:52;;;;;;;;;;;14.50;85.90;;;;;;5044797;28;19921;-84
2023/09/27 05:13:21;;;;;;;;;;;14.50;85.70;;;;;;5040608;28;20019;-83
2023/09/27 05:15:47;;;;;;;;;;;14.50;86.00;;;;;;5045559;28;19921;-87
2023/09/27 05:18:13;;;;;;;;;;;14.50;86.00;;;;;;5041194;28;19913;-82
2023/09/27 05:20:38;;;;;;;;;;;14.50;85.70;;;;;;5047582;28;19920;-85
2023/09/27 05:23:04;;;;;;;;;;;14.50;86.00;;;;;;5047521;28;19917;-84
2023/09/27 05:25:29;;;;;;;;;;;14.50;86.00;;;;;;5044828;28;20015;-83
2023/09/27 05:27:56;;;;;;;;;;;14.50;85.70;;;;;;5040306;28;19920;-85
2023/09/27 05:30:22;;;;;;;;;;;14.40;85.70;;;;;;5049253;28;19921;-84
2023/09/27 05:32:47;;;;;;;;;;;14.40;85.70;;;;;;5043838;28;19996;-80
2023/09/27 05:35:13;;;;;;;;;;;14.40;85.70;;;;;;5038767;28;20294;-86
2023/09/27 05:37:40;;;;;;;;;;;14.40;85.90;;;;;;5044434;28;20469;-87
2023/09/27 05:40:07;;;;;;;;;;;14.40;85.90;;;;;;5043903;28;19999;-86
2023/09/27 05:42:33;;;;;;;;;;;14.30;86.10;;;;;;5045600;28;20295;-87
2023/09/27 05:44:58;;;;;;;;;;;14.30;86.30;;;;;;5050587;28;19913;-87
2023/09/27 05:47:24;;;;;;;;;;;14.30;86.50;;;;;;5041369;28;19913;-86
2023/09/27 05:49:50;;;;;;;;;;;14.40;86.10;;;;;;5044025;28;19924;-86
2023/09/27 05:52:19;;;;;;;;;;;14.30;86.30;;;;;;5041574;28;23396;-86
2023/09/27 05:54:46;;;;;;;;;;;14.30;86.30;;;;;;5044515;28;19944;-86
2023/09/27 05:57:12;;;;;;;;;;;14.30;86.00;;;;;;5037811;28;19963;-86
2023/09/27 05:59:41;;;;;;;;;;;14.30;86.20;;;;;;5046036;28;19913;-86
2023/09/27 06:02:07;;;;;;;;;;;14.30;86.50;;;;;;5041213;28;19967;-87
2023/09/27 06:04:36;;;;;;;;;;;14.30;86.40;;;;;;5051054;22;20534;-81
2023/09/27 06:07:05;;;;;;;;;;;14.40;86.80;;;;;;5045106;28;19917;-81
2023/09/27 06:09:33;;;;;;;;;;;14.40;87.00;;;;;;5047000;28;19913;-82
2023/09/27 06:12:05;;;;;;;;;;;14.40;87.00;;;;;;5046614;28;19975;-81
2023/09/27 06:14:38;;;;;;;;;;;14.50;87.00;;;;;;5067765;28;19917;-82
2023/09/27 06:17:06;;;;;;;;;;;14.50;86.70;;;;;;5062554;28;19925;-81
2023/09/27 06:19:40;;;;;;;;;;;14.60;86.70;;;;;;5050998;28;19917;-81
2023/09/27 06:22:28;;;;;;;;;;;14.70;86.20;;;;;;5042910;28;19913;-81
2023/09/27 06:25:02;;;;;;;;;;;14.80;86.10;;;;;;5040410;28;19913;-80
2023/09/27 06:27:28;;;;;;;;;;;14.90;86.10;;;;;;5051668;28;19987;-81
2023/09/27 06:30:04;;;;;;;;;;;14.90;86.40;;;;;;5055038;28;19913;-81
2023/09/27 06:32:40;;;;;;;;;;;14.90;86.30;;;;;;5041167;28;19941;-81
2023/09/27 06:35:12;;;;;;;;;;;15.00;86.30;;;;;;5050422;28;19913;-81
2023/09/27 06:38:00;;;;;;;;;;;15.10;86.20;;;;;;5052657;28;19944;-80
2023/09/27 06:40:29;;;;;;;;;;;15.20;85.70;;;;;;5054359;28;20066;-80
2023/09/27 06:42:58;;;;;;;;;;;15.40;85.30;;;;;;5048018;28;19923;-81
2023/09/27 06:45:26;;;;;;;;;;;15.50;85.20;;;;;;5049976;28;19917;-80
2023/09/27 06:48:03;;;;;;;;;;;15.60;84.40;;;;;;5058216;28;19912;-80
2023/09/27 06:50:30;;;;;;;;;;;15.70;84.70;;;;;;5057246;28;19979;-81
2023/09/27 06:53:11;;;;;;;;;;;15.90;84.90;;;;;;5051112;28;19965;-81
2023/09/27 06:55:45;;;;;;;;;;;16.00;85.00;;;;;;5053727;28;19920;-80
2023/09/27 06:58:11;;;;;;;;;;;16.10;85.00;;;;;;5071598;28;19967;-80
2023/09/27 07:00:40;;;;;;;;;;;16.20;85.00;;;;;;5056753;28;19947;-82
2023/09/27 07:03:06;;;;;;;;;;;16.30;84.90;;;;;;5053469;28;19913;-82
2023/09/27 07:05:33;;;;;;;;;;;16.40;84.60;;;;;;5058301;28;19921;-81
2023/09/27 07:08:13;;;;;;;;;;;16.40;84.40;;;;;;5056870;28;19913;-81
2023/09/27 07:10:40;;;;;;;;;;;16.50;84.20;;;;;;5058313;28;19920;-80
2023/09/27 07:13:16;;;;;;;;;;;16.60;84.00;;;;;;5055484;28;19917;-81
2023/09/27 07:15:48;;;;;;;;;;;16.60;83.80;;;;;;5050658;28;19935;-81
2023/09/27 07:18:13;;;;;;;;;;;16.70;83.70;;;;;;5050979;28;20271;-81
2023/09/27 07:23:29;;;;;;;;;;;16.70;83.80;;;;;;5050106;28;19939;-82
2023/09/27 07:25:58;;;;;;;;;;;16.70;84.20;;;;;;5055319;28;19944;-81
2023/09/27 07:28:23;;;;;;;;;;;16.70;84.50;;;;;;5049884;28;19924;-80
2023/09/27 07:31:04;;;;;;;;;;;16.70;84.80;;;;;;5058557;28;19921;-82
2023/09/27 07:33:33;;;;;;;;;;;16.80;84.60;;;;;;5051914;28;20243;-79
2023/09/27 07:36:24;;;;;;;;;;;16.80;84.40;;;;;;5072547;28;19916;-82
2023/09/27 07:38:50;;;;;;;;;;;16.80;84.20;;;;;;5032251;28;20318;-80
2023/09/27 07:41:15;;;;;;;;;;;16.70;84.50;;;;;;5054153;28;19913;-80
2023/09/27 07:43:41;;;;;;;;;;;16.80;84.50;;;;;;5063240;28;19939;-79
2023/09/27 07:46:06;;;;;;;;;;;16.80;84.40;;;;;;5073840;28;19913;-79
2023/09/27 07:48:39;;;;;;;;;;;16.70;84.50;;;;;;5063169;28;19971;-81
2023/09/27 07:51:14;;;;;;;;;;;16.70;84.60;;;;;;5050418;28;19913;-80
2023/09/27 07:53:40;;;;;;;;;;;16.70;84.40;;;;;;5052559;28;19913;-81
2023/09/27 07:56:09;;;;;;;;;;;16.70;84.50;;;;;;5060219;28;20007;-80
2023/09/27 07:58:35;;;;;;;;;;;16.60;84.60;;;;;;5054880;28;20483;-81
2023/09/27 08:01:01;;;;;;;;;;;16.60;84.50;;;;;;5050732;28;19923;-80
2023/09/27 08:03:27;;;;;;;;;;;16.70;84.30;;;;;;5050832;28;20337;-82
2023/09/27 08:05:52;;;;;;;;;;;16.70;84.10;;;;;;5057083;28;20234;-80
2023/09/27 08:08:18;;;;;;;;;;;16.80;83.50;;;;;;5050433;28;19917;-81
2023/09/27 08:10:45;;;;;;;;;;;16.90;83.30;;;;;;5053668;28;19938;-80
2023/09/27 08:13:14;;;;;;;;;;;16.90;83.30;;;;;;5055236;28;19960;-81
2023/09/27 08:15:40;;;;;;;;;;;17.10;83.20;;;;;;5054861;28;20003;-83
2023/09/27 08:18:06;;;;;;;;;;;17.20;83.20;;;;;;5054827;28;19979;-82
2023/09/27 08:20:32;;;;;;;;;;;17.30;83.10;;;;;;5053704;28;19924;-81
2023/09/27 08:22:58;;;;;;;;;;;17.50;83.40;;;;;;5058692;28;19917;-80
2023/09/27 08:25:23;;;;;;;;;;;17.60;83.20;;;;;;5051384;28;19913;-84
2023/09/27 08:27:50;;;;;;;;;;;17.60;82.60;;;;;;5050707;28;19912;-83
2023/09/27 08:30:16;;;;;;;;;;;17.60;82.10;;;;;;5048064;28;19913;-82
2023/09/27 08:32:41;;;;;;;;;;;17.60;82.30;;;;;;5051426;28;20532;-82
2023/09/27 08:35:07;;;;;;;;;;;17.70;81.80;;;;;;5075281;28;19936;-80
2023/09/27 08:37:32;;;;;;;;;;;17.90;81.90;;;;;;5069945;28;19920;-82
2023/09/27 08:39:58;;;;;;;;;;;18.00;81.40;;;;;;5056482;28;20394;-82
2023/09/27 08:42:24;;;;;;;;;;;18.10;80.90;;;;;;5050519;28;20293;-81
2023/09/27 08:44:51;;;;;;;;;;;18.20;80.70;;;;;;5049875;28;19948;-79
2023/09/27 08:47:18;;;;;;;;;;;18.30;80.70;;;;;;5046384;28;19913;-81
2023/09/27 08:49:43;;;;;;;;;;;18.40;80.80;;;;;;5047236;28;19921;-81
2023/09/27 08:52:09;;;;;;;;;;;18.60;79.90;;;;;;5046942;28;19943;-81
2023/09/27 08:54:35;;;;;;;;;;;18.60;80.10;;;;;;5050005;28;19913;-82
2023/09/27 08:57:02;;;;;;;;;;;18.60;80.20;;;;;;5047350;28;20502;-80
2023/09/27 08:59:28;;;;;;;;;;;18.50;80.20;;;;;;5048295;28;19921;-81
2023/09/27 09:01:54;;;;;;;;;;;18.50;80.40;;;;;;5049503;28;19919;-82
2023/09/27 09:04:22;;;;;;;;;;;18.50;80.40;;;;;;5043870;28;19924;-81
2023/09/27 09:06:47;;;;;;;;;;;18.50;80.00;;;;;;5042755;28;19936;-80
2023/09/27 09:09:13;;;;;;;;;;;18.50;79.80;;;;;;5047407;28;19917;-81
2023/09/27 09:11:47;;;;;;;;;;;18.50;80.00;;;;;;5050444;28;19924;-82
2023/09/27 09:14:21;;;;;;;;;;;18.40;80.70;;;;;;5047592;28;19921;-81
2023/09/27 09:16:53;;;;;;;;;;;18.50;81.00;;;;;;5056196;28;19968;-82
2023/09/27 09:19:22;;;;;;;;;;;18.50;81.40;;;;;;5063501;28;19971;-82
2023/09/27 09:21:55;;;;;;;;;;;18.80;80.60;;;;;;5041090;28;20284;-82
2023/09/27 09:24:21;;;;;;;;;;;18.80;80.40;;;;;;5047701;28;19921;-83
2023/09/27 09:26:46;;;;;;;;;;;18.80;79.90;;;;;;5054950;28;19912;-82
2023/09/27 09:29:12;;;;;;;;;;;18.90;78.70;;;;;;5051314;28;20019;-81
2023/09/27 09:31:38;;;;;;;;;;;19.00;78.10;;;;;;5057402;28;20029;-81
2023/09/27 09:34:04;;;;;;;;;;;19.00;78.20;;;;;;5050972;28;19959;-82
2023/09/27 09:36:30;;;;;;;;;;;19.10;78.70;;;;;;5053315;28;19913;-80
2023/09/27 09:39:04;;;;;;;;;;;19.10;77.20;;;;;;5053967;28;19920;-81
2023/09/27 09:41:47;;;;;;;;;;;19.10;77.00;;;;;;5055224;28;19921;-82
2023/09/27 09:44:20;;;;;;;;;;;19.10;77.20;;;;;;5056999;28;19966;-81
2023/09/27 09:46:47;;;;;;;;;;;19.10;76.90;;;;;;5053935;28;19952;-81
2023/09/27 09:49:15;;;;;;;;;;;19.20;76.70;;;;;;5056496;28;20521;-81
2023/09/27 09:51:43;;;;;;;;;;;19.40;75.50;;;;;;5052568;28;19917;-81
2023/09/27 09:54:09;;;;;;;;;;;19.60;73.40;;;;;;5053570;28;20267;-80
2023/09/27 09:56:35;;;;;;;;;;;19.60;72.90;;;;;;5051229;28;19912;-81
2023/09/27 09:59:03;;;;;;;;;;;19.70;73.40;;;;;;5057011;28;19935;-81
2023/09/27 10:01:31;;;;;;;;;;;19.70;73.40;;;;;;5052049;28;19920;-80
2023/09/27 10:04:01;;;;;;;;;;;19.80;73.00;;;;;;5055424;28;20332;-81
2023/09/27 10:06:26;;;;;;;;;;;19.90;71.90;;;;;;5053991;28;19917;-81
2023/09/27 10:08:53;;;;;;;;;;;19.90;71.70;;;;;;5055450;28;19920;-81
2023/09/27 10:11:19;;;;;;;;;;;19.90;71.10;;;;;;5052946;28;20345;-81
2023/09/27 10:13:45;;;;;;;;;;;20.00;70.00;;;;;;5052996;28;19934;-81
2023/09/27 10:16:11;;;;;;;;;;;20.00;70.00;;;;;;5050723;28;19999;-81
2023/09/27 10:18:37;;;;;;;;;;;19.90;70.30;;;;;;5056456;28;19990;-81
2023/09/27 10:21:03;;;;;;;;;;;20.00;69.80;;;;;;5056913;28;19913;-82
2023/09/27 10:23:35;;;;;;;;;;;20.00;69.80;;;;;;5055709;28;19921;-80
2023/09/27 10:26:17;;;;;;;;;;;19.90;70.40;;;;;;5055540;28;19912;-83
2023/09/27 10:29:04;;;;;;;;;;;19.80;71.50;;;;;;5058170;28;19913;-84
2023/09/27 10:31:34;;;;;;;;;;;19.90;71.10;;;;;;5055106;28;20302;-83
2023/09/27 10:33:59;;;;;;;;;;;19.90;69.70;;;;;;5055218;28;19921;-83
2023/09/27 10:36:24;;;;;;;;;;;19.90;69.90;;;;;;5057527;28;19923;-83
2023/09/27 10:38:50;;;;;;;;;;;20.10;68.90;;;;;;5057393;28;19912;-83
2023/09/27 10:41:31;;;;;;;;;;;20.10;68.40;;;;;;5064523;28;19924;-83
2023/09/27 10:43:57;;;;;;;;;;;20.20;68.70;;;;;;5077847;28;19913;-83
2023/09/27 10:46:22;;;;;;;;;;;20.20;68.40;;;;;;5064589;28;19977;-83
2023/09/27 10:48:54;;;;;;;;;;;20.40;68.60;;;;;;5072875;28;20171;-83
2023/09/27 10:51:25;;;;;;;;;;;20.50;67.40;;;;;;5080604;28;19917;-84
2023/09/27 10:53:51;;;;;;;;;;;20.70;67.20;;;;;;5078876;28;19905;-83
2023/09/27 10:56:17;;;;;;;;;;;20.80;66.50;;;;;;5075637;28;19916;-83
2023/09/27 10:58:45;;;;;;;;;;;20.80;68.00;;;;;;5060085;28;19924;-81
2023/09/27 11:01:14;;;;;;;;;;;21.00;68.60;;;;;;5059151;28;19912;-81
2023/09/27 11:03:39;;;;;;;;;;;21.00;68.50;;;;;;5056243;28;20028;-82
2023/09/27 11:06:11;;;;;;;;;;;21.00;67.50;;;;;;5060796;28;19947;-80
2023/09/27 11:08:37;;;;;;;;;;;21.30;64.60;;;;;;5051139;28;20053;-80
2023/09/27 11:11:06;;;;;;;;;;;21.40;62.90;;;;;;5053978;28;19917;-81
2023/09/27 11:13:32;;;;;;;;;;;21.60;61.70;;;;;;5046276;28;19932;-81
2023/09/27 11:16:07;;;;;;;;;;;21.60;62.60;;;;;;5052628;28;20306;-81
2023/09/27 11:18:34;;;;;;;;;;;21.50;65.60;;;;;;5055332;28;20004;-81
2023/09/27 11:21:09;;;;;;;;;;;21.50;62.70;;;;;;5051153;28;19917;-81
2023/09/27 11:23:50;;;;;;;;;;;21.60;60.90;;;;;;5049444;28;20370;-82
2023/09/27 11:26:17;;;;;;;;;;;21.70;60.90;;;;;;5054828;28;20054;-83
2023/09/27 11:28:43;;;;;;;;;;;21.70;61.80;;;;;;5053738;28;20491;-82
2023/09/27 11:31:08;;;;;;;;;;;21.60;61.80;;;;;;5052405;28;19913;-82
2023/09/27 11:33:33;;;;;;;;;;;21.60;62.40;;;;;;5054157;28;20340;-82
2023/09/27 11:36:03;;;;;;;;;;;21.60;63.40;;;;;;5050728;28;19913;-82
2023/09/27 11:38:28;;;;;;;;;;;21.80;61.80;;;;;;5053428;28;19939;-83
2023/09/27 11:40:54;;;;;;;;;;;21.80;63.30;;;;;;5048069;28;19913;-83
2023/09/27 11:43:20;;;;;;;;;;;21.80;63.10;;;;;;5052637;28;19948;-82
2023/09/27 11:45:47;;;;;;;;;;;21.90;63.00;;;;;;5049584;28;19913;-82
2023/09/27 11:48:13;;;;;;;;;;;22.00;62.10;;;;;;5051812;28;20064;-82
2023/09/27 11:50:38;;;;;;;;;;;22.30;61.10;;;;;;5047274;28;20039;-82
2023/09/27 11:53:04;;;;;;;;;;;22.40;60.00;;;;;;5047089;28;19913;-81
2023/09/27 11:55:30;;;;;;;;;;;22.50;59.50;;;;;;5054263;28;19928;-82
2023/09/27 11:57:59;;;;;;;;;;;22.40;61.20;;;;;;5047566;28;19916;-82
2023/09/27 12:00:24;;;;;;;;;;;22.40;60.60;;;;;;5052233;28;19931;-82
2023/09/27 12:02:51;;;;;;;;;;;22.30;60.20;;;;;;5047162;28;19921;-82
2023/09/27 12:05:16;;;;;;;;;;;22.20;61.40;;;;;;5050420;28;19943;-81
2023/09/27 12:07:43;;;;;;;;;;;22.10;61.20;;;;;;5062237;28;20370;-84
2023/09/27 12:10:09;;;;;;;;;;;22.20;59.60;;;;;;5040960;28;19920;-82
2023/09/27 12:12:34;;;;;;;;;;;22.30;62.70;;;;;;5047282;28;19921;-81
2023/09/27 12:15:00;;;;;;;;;;;22.40;61.60;;;;;;5048478;28;19917;-81
2023/09/27 12:17:26;;;;;;;;;;;22.30;63.20;;;;;;5041632;28;19963;-81
2023/09/27 12:19:51;;;;;;;;;;;22.50;62.90;;;;;;5042524;28;19960;-81
2023/09/27 12:22:17;;;;;;;;;;;22.50;59.90;;;;;;5048841;28;19913;-81
2023/09/27 12:24:42;;;;;;;;;;;22.40;61.20;;;;;;5053558;28;19977;-81
2023/09/27 12:27:07;;;;;;;;;;;22.30;63.40;;;;;;5044898;28;20301;-81
2023/09/27 12:29:33;;;;;;;;;;;22.20;63.60;;;;;;5047493;28;20035;-82
2023/09/27 12:32:00;;;;;;;;;;;22.30;62.70;;;;;;5049074;28;19959;-81
2023/09/27 12:34:25;;;;;;;;;;;22.20;63.10;;;;;;5050334;28;20278;-81
2023/09/27 12:36:51;;;;;;;;;;;22.50;63.00;;;;;;5045487;28;20003;-81
2023/09/27 12:39:16;;;;;;;;;;;22.50;63.70;;;;;;5054183;28;19913;-81
2023/09/27 12:41:42;;;;;;;;;;;22.50;62.60;;;;;;5048251;28;19917;-81
2023/09/27 12:44:07;;;;;;;;;;;22.50;62.30;;;;;;5043553;28;19913;-81
2023/09/27 12:46:33;;;;;;;;;;;22.50;62.40;;;;;;5044434;28;19920;-83
2023/09/27 12:48:59;;;;;;;;;;;22.40;63.30;;;;;;5047694;28;19921;-81
2023/09/27 12:51:24;;;;;;;;;;;22.40;63.40;;;;;;5038151;28;19920;-82
2023/09/27 12:53:50;;;;;;;;;;;22.50;61.50;;;;;;5035277;28;20106;-81
2023/09/27 12:56:15;;;;;;;;;;;22.70;60.80;;;;;;5038781;28;19944;-81
2023/09/27 12:58:42;;;;;;;;;;;22.90;60.00;;;;;;5045087;28;19924;-81
2023/09/27 13:01:14;;;;;;;;;;;22.90;60.70;;;;;;5048430;28;19935;-81
2023/09/27 13:03:39;;;;;;;;;;;22.90;62.00;;;;;;5040081;28;19932;-82
2023/09/27 13:06:05;;;;;;;;;;;23.10;60.90;;;;;;5050114;28;19913;-83
2023/09/27 13:08:30;;;;;;;;;;;23.20;61.10;;;;;;5041002;28;19913;-83
2023/09/27 13:10:56;;;;;;;;;;;23.10;61.80;;;;;;5048164;28;20377;-81
2023/09/27 13:13:21;;;;;;;;;;;23.30;62.10;;;;;;5044988;28;20297;-80
2023/09/27 13:15:47;;;;;;;;;;;23.30;61.60;;;;;;5062804;28;19921;-78
2023/09/27 13:18:12;;;;;;;;;;;23.30;61.00;;;;;;5052173;28;20556;-80
2023/09/27 13:20:38;;;;;;;;;;;23.30;62.00;;;;;;5054682;28;19968;-81
2023/09/27 13:23:04;;;;;;;;;;;23.30;60.80;;;;;;5049980;28;19927;-82
2023/09/27 13:25:29;;;;;;;;;;;23.30;57.50;;;;;;5053548;28;20336;-82
2023/09/27 13:27:55;;;;;;;;;;;23.50;55.80;;;;;;5053734;28;19935;-81
2023/09/27 13:30:20;;;;;;;;;;;23.40;57.20;;;;;;5052766;28;19944;-81
2023/09/27 13:32:46;;;;;;;;;;;23.30;56.30;;;;;;5051699;28;19952;-81
2023/09/27 13:35:11;;;;;;;;;;;23.40;56.70;;;;;;5049727;28;19965;-82
2023/09/27 13:37:36;;;;;;;;;;;23.50;55.70;;;;;;5050594;28;19921;-81
2023/09/27 13:40:05;;;;;;;;;;;23.50;56.80;;;;;;5050857;28;19921;-81
2023/09/27 13:42:32;;;;;;;;;;;23.40;58.00;;;;;;5047458;28;19913;-81
2023/09/27 13:44:58;;;;;;;;;;;23.30;57.90;;;;;;5050580;28;19913;-80
2023/09/27 13:47:23;;;;;;;;;;;23.30;57.90;;;;;;5054068;28;19943;-81
2023/09/27 13:49:50;;;;;;;;;;;23.40;58.50;;;;;;5065838;28;19913;-81
2023/09/27 13:52:15;;;;;;;;;;;23.30;59.70;;;;;;5066024;28;19931;-81
2023/09/27 13:54:41;;;;;;;;;;;23.20;59.00;;;;;;5046741;28;19959;-81
2023/09/27 13:57:07;;;;;;;;;;;23.20;60.20;;;;;;5052510;28;19921;-81
2023/09/27 13:59:33;;;;;;;;;;;23.10;60.00;;;;;;5041214;28;20011;-80
2023/09/27 14:01:58;;;;;;;;;;;23.00;60.00;;;;;;5046382;28;20374;-81
2023/09/27 14:04:24;;;;;;;;;;;23.10;60.30;;;;;;5049509;28;19924;-80
2023/09/27 14:06:50;;;;;;;;;;;23.00;60.40;;;;;;5049128;28;19913;-80
2023/09/27 14:09:16;;;;;;;;;;;22.90;61.40;;;;;;5048417;28;19913;-81
2023/09/27 14:11:41;;;;;;;;;;;22.80;61.90;;;;;;5055000;28;20007;-81
2023/09/27 14:14:07;;;;;;;;;;;22.80;61.60;;;;;;5040523;28;19964;-80
2023/09/27 14:16:32;;;;;;;;;;;22.90;61.40;;;;;;5049848;28;19913;-80
2023/09/27 14:18:59;;;;;;;;;;;22.80;61.90;;;;;;5042368;28;20433;-81